sensor_id;sensor_type;location;lat;lon;timestamp;P1;durP1;ratioP1;P2;durP2;ratioP2
2388;SDS011;1205;47.984;7.668;2023-12-22T00:01:28;1.00;;;1.00;;
2388;SDS011;1205;47.984;7.668;2023-12-22T00:03:54;2.07;;;0.70;;
2388;SDS011;1205;47.984;7.668;2023-12-22T00:06:19;1.17;;;1.07;;
2388;SDS011;1205;47.984;7.668;2023-12-22T00:08:45;1.10;;;1.10;;
2388;SDS011;1205;47.984;7.668;2023-12-22T00:11:11;4.20;;;1.10;;
2388;SDS011;1205;47.984;7.668;2023-12-22T00:13:37;1.90;;;0.70;;
2388;SDS011;1205;47.984;7.668;2023-12-22T00:16:03;2.30;;;1.00;;
2388;SDS011;1205;47.984;7.668;2023-12-22T00:18:29;1.70;;;1.00;;
2388;SDS011;1205;47.984;7.668;2023-12-22T00:20:55;1.20;;;0.83;;
2388;SDS011;1205;47.984;7.668;2023-12-22T00:23:21;0.80;;;0.70;;
2388;SDS011;1205;47.984;7.668;2023-12-22T00:25:46;1.30;;;0.60;;
2388;SDS011;1205;47.984;7.668;2023-12-22T00:28:12;2.73;;;0.90;;
2388;SDS011;1205;47.984;7.668;2023-12-22T00:30:37;0.70;;;0.70;;
2388;SDS011;1205;47.984;7.668;2023-12-22T00:33:03;1.57;;;0.80;;
2388;SDS011;1205;47.984;7.668;2023-12-22T00:35:29;1.20;;;0.70;;
2388;SDS011;1205;47.984;7.668;2023-12-22T00:37:54;2.43;;;0.70;;
2388;SDS011;1205;47.984;7.668;2023-12-22T00:40:20;3.30;;;0.93;;
2388;SDS011;1205;47.984;7.668;2023-12-22T00:42:45;6.07;;;1.17;;
2388;SDS011;1205;47.984;7.668;2023-12-22T00:45:11;3.43;;;1.17;;
2388;SDS011;1205;47.984;7.668;2023-12-22T00:47:37;4.50;;;1.07;;
2388;SDS011;1205;47.984;7.668;2023-12-22T00:50:03;5.27;;;0.90;;
2388;SDS011;1205;47.984;7.668;2023-12-22T00:52:29;3.63;;;1.00;;
2388;SDS011;1205;47.984;7.668;2023-12-22T00:54:56;5.63;;;1.00;;
2388;SDS011;1205;47.984;7.668;2023-12-22T00:57:22;0.60;;;0.60;;
2388;SDS011;1205;47.984;7.668;2023-12-22T00:59:47;1.50;;;0.83;;
2388;SDS011;1205;47.984;7.668;2023-12-22T01:02:16;2.77;;;0.73;;
2388;SDS011;1205;47.984;7.668;2023-12-22T01:04:42;1.20;;;0.80;;
2388;SDS011;1205;47.984;7.668;2023-12-22T01:07:09;2.37;;;1.20;;
2388;SDS011;1205;47.984;7.668;2023-12-22T01:09:35;3.07;;;1.03;;
2388;SDS011;1205;47.984;7.668;2023-12-22T01:12:02;1.40;;;0.80;;
2388;SDS011;1205;47.984;7.668;2023-12-22T01:14:29;3.87;;;0.90;;
2388;SDS011;1205;47.984;7.668;2023-12-22T01:16:55;2.50;;;0.70;;
2388;SDS011;1205;47.984;7.668;2023-12-22T01:19:21;2.43;;;0.97;;
2388;SDS011;1205;47.984;7.668;2023-12-22T01:21:47;2.43;;;0.90;;
2388;SDS011;1205;47.984;7.668;2023-12-22T01:24:12;3.80;;;0.87;;
2388;SDS011;1205;47.984;7.668;2023-12-22T01:26:38;2.23;;;1.00;;
2388;SDS011;1205;47.984;7.668;2023-12-22T01:29:03;2.13;;;1.00;;
2388;SDS011;1205;47.984;7.668;2023-12-22T01:31:29;2.67;;;0.93;;
2388;SDS011;1205;47.984;7.668;2023-12-22T01:33:55;1.03;;;0.93;;
2388;SDS011;1205;47.984;7.668;2023-12-22T01:36:20;1.93;;;0.77;;
2388;SDS011;1205;47.984;7.668;2023-12-22T01:38:46;2.63;;;0.83;;
2388;SDS011;1205;47.984;7.668;2023-12-22T01:41:11;2.40;;;0.70;;
2388;SDS011;1205;47.984;7.668;2023-12-22T01:43:37;1.47;;;0.90;;
2388;SDS011;1205;47.984;7.668;2023-12-22T01:46:03;1.37;;;1.10;;
2388;SDS011;1205;47.984;7.668;2023-12-22T01:48:29;3.67;;;0.87;;
2388;SDS011;1205;47.984;7.668;2023-12-22T01:50:55;1.50;;;0.90;;
2388;SDS011;1205;47.984;7.668;2023-12-22T01:53:23;2.77;;;1.13;;
2388;SDS011;1205;47.984;7.668;2023-12-22T01:55:50;4.50;;;1.37;;
2388;SDS011;1205;47.984;7.668;2023-12-22T01:58:18;3.00;;;1.10;;
2388;SDS011;1205;47.984;7.668;2023-12-22T02:00:44;5.17;;;1.37;;
2388;SDS011;1205;47.984;7.668;2023-12-22T02:03:10;3.00;;;1.43;;
2388;SDS011;1205;47.984;7.668;2023-12-22T02:05:37;4.10;;;1.23;;
2388;SDS011;1205;47.984;7.668;2023-12-22T02:08:03;4.50;;;1.03;;
2388;SDS011;1205;47.984;7.668;2023-12-22T02:10:29;2.80;;;1.43;;
2388;SDS011;1205;47.984;7.668;2023-12-22T02:12:54;4.10;;;1.10;;
2388;SDS011;1205;47.984;7.668;2023-12-22T02:15:20;3.00;;;1.07;;
2388;SDS011;1205;47.984;7.668;2023-12-22T02:20:11;5.30;;;1.17;;
2388;SDS011;1205;47.984;7.668;2023-12-22T02:22:37;5.53;;;1.33;;
2388;SDS011;1205;47.984;7.668;2023-12-22T02:25:03;1.50;;;1.00;;
2388;SDS011;1205;47.984;7.668;2023-12-22T02:30:13;2.37;;;0.90;;
2388;SDS011;1205;47.984;7.668;2023-12-22T02:32:59;8.17;;;1.07;;
2388;SDS011;1205;47.984;7.668;2023-12-22T02:35:28;3.87;;;0.97;;
2388;SDS011;1205;47.984;7.668;2023-12-22T02:37:58;4.60;;;1.53;;
2388;SDS011;1205;47.984;7.668;2023-12-22T02:40:25;3.00;;;1.03;;
2388;SDS011;1205;47.984;7.668;2023-12-22T02:42:52;5.80;;;1.00;;
2388;SDS011;1205;47.984;7.668;2023-12-22T02:45:18;1.43;;;0.80;;
2388;SDS011;1205;47.984;7.668;2023-12-22T02:47:44;6.90;;;1.27;;
2388;SDS011;1205;47.984;7.668;2023-12-22T02:50:10;1.37;;;0.93;;
2388;SDS011;1205;47.984;7.668;2023-12-22T02:52:38;1.40;;;1.23;;
2388;SDS011;1205;47.984;7.668;2023-12-22T02:55:04;2.97;;;1.50;;
2388;SDS011;1205;47.984;7.668;2023-12-22T02:57:30;9.57;;;1.60;;
2388;SDS011;1205;47.984;7.668;2023-12-22T02:59:56;6.80;;;1.40;;
2388;SDS011;1205;47.984;7.668;2023-12-22T03:02:22;2.97;;;0.93;;
2388;SDS011;1205;47.984;7.668;2023-12-22T03:04:48;2.63;;;1.13;;
2388;SDS011;1205;47.984;7.668;2023-12-22T03:07:13;1.03;;;0.73;;
2388;SDS011;1205;47.984;7.668;2023-12-22T03:09:40;2.53;;;0.90;;
2388;SDS011;1205;47.984;7.668;2023-12-22T03:12:06;2.70;;;1.00;;
2388;SDS011;1205;47.984;7.668;2023-12-22T03:14:32;5.00;;;1.53;;
2388;SDS011;1205;47.984;7.668;2023-12-22T03:16:59;6.63;;;1.27;;
2388;SDS011;1205;47.984;7.668;2023-12-22T03:19:25;4.67;;;1.13;;
2388;SDS011;1205;47.984;7.668;2023-12-22T03:21:50;10.33;;;1.50;;
2388;SDS011;1205;47.984;7.668;2023-12-22T03:24:16;2.33;;;1.63;;
2388;SDS011;1205;47.984;7.668;2023-12-22T03:26:44;3.77;;;1.03;;
2388;SDS011;1205;47.984;7.668;2023-12-22T03:29:10;2.30;;;1.00;;
2388;SDS011;1205;47.984;7.668;2023-12-22T03:31:35;1.43;;;1.00;;
2388;SDS011;1205;47.984;7.668;2023-12-22T03:34:01;3.87;;;1.37;;
2388;SDS011;1205;47.984;7.668;2023-12-22T03:36:26;2.40;;;1.00;;
2388;SDS011;1205;47.984;7.668;2023-12-22T03:38:52;4.73;;;1.40;;
2388;SDS011;1205;47.984;7.668;2023-12-22T03:41:17;6.23;;;2.03;;
2388;SDS011;1205;47.984;7.668;2023-12-22T03:43:43;4.63;;;1.10;;
2388;SDS011;1205;47.984;7.668;2023-12-22T03:46:09;3.43;;;1.37;;
2388;SDS011;1205;47.984;7.668;2023-12-22T03:48:34;4.67;;;1.20;;
2388;SDS011;1205;47.984;7.668;2023-12-22T03:51:00;5.03;;;1.23;;
2388;SDS011;1205;47.984;7.668;2023-12-22T03:53:25;4.30;;;1.30;;
2388;SDS011;1205;47.984;7.668;2023-12-22T03:55:51;3.53;;;1.10;;
2388;SDS011;1205;47.984;7.668;2023-12-22T03:58:16;3.00;;;0.97;;
2388;SDS011;1205;47.984;7.668;2023-12-22T04:00:42;1.70;;;1.10;;
2388;SDS011;1205;47.984;7.668;2023-12-22T04:03:07;2.73;;;0.87;;
2388;SDS011;1205;47.984;7.668;2023-12-22T04:05:33;6.10;;;1.20;;
2388;SDS011;1205;47.984;7.668;2023-12-22T04:07:58;2.00;;;0.80;;
2388;SDS011;1205;47.984;7.668;2023-12-22T04:10:24;1.20;;;1.07;;
2388;SDS011;1205;47.984;7.668;2023-12-22T04:12:49;4.00;;;0.80;;
2388;SDS011;1205;47.984;7.668;2023-12-22T04:15:15;5.70;;;1.17;;
2388;SDS011;1205;47.984;7.668;2023-12-22T04:17:40;2.43;;;1.57;;
2388;SDS011;1205;47.984;7.668;2023-12-22T04:20:06;0.70;;;0.60;;
2388;SDS011;1205;47.984;7.668;2023-12-22T04:22:32;3.20;;;0.77;;
2388;SDS011;1205;47.984;7.668;2023-12-22T04:24:58;2.40;;;0.93;;
2388;SDS011;1205;47.984;7.668;2023-12-22T04:27:23;3.17;;;1.20;;
2388;SDS011;1205;47.984;7.668;2023-12-22T04:29:49;1.80;;;1.00;;
2388;SDS011;1205;47.984;7.668;2023-12-22T04:32:15;5.70;;;1.30;;
2388;SDS011;1205;47.984;7.668;2023-12-22T04:34:40;2.80;;;1.00;;
2388;SDS011;1205;47.984;7.668;2023-12-22T04:37:06;4.10;;;1.53;;
2388;SDS011;1205;47.984;7.668;2023-12-22T04:39:31;7.03;;;1.93;;
2388;SDS011;1205;47.984;7.668;2023-12-22T04:41:57;9.63;;;1.50;;
2388;SDS011;1205;47.984;7.668;2023-12-22T04:44:23;4.00;;;1.30;;
2388;SDS011;1205;47.984;7.668;2023-12-22T04:46:48;4.70;;;1.40;;
2388;SDS011;1205;47.984;7.668;2023-12-22T04:49:14;4.73;;;1.17;;
2388;SDS011;1205;47.984;7.668;2023-12-22T04:51:40;5.70;;;1.37;;
2388;SDS011;1205;47.984;7.668;2023-12-22T04:54:05;5.13;;;1.13;;
2388;SDS011;1205;47.984;7.668;2023-12-22T04:56:31;6.43;;;1.63;;
2388;SDS011;1205;47.984;7.668;2023-12-22T04:58:57;7.53;;;1.90;;
2388;SDS011;1205;47.984;7.668;2023-12-22T05:01:23;6.53;;;1.53;;
2388;SDS011;1205;47.984;7.668;2023-12-22T05:03:48;9.70;;;1.50;;
2388;SDS011;1205;47.984;7.668;2023-12-22T05:06:14;6.07;;;1.60;;
2388;SDS011;1205;47.984;7.668;2023-12-22T05:08:39;8.30;;;2.00;;
2388;SDS011;1205;47.984;7.668;2023-12-22T05:11:05;6.90;;;1.60;;
2388;SDS011;1205;47.984;7.668;2023-12-22T05:13:31;6.03;;;1.77;;
2388;SDS011;1205;47.984;7.668;2023-12-22T05:15:56;9.67;;;1.67;;
2388;SDS011;1205;47.984;7.668;2023-12-22T05:18:22;5.73;;;1.57;;
2388;SDS011;1205;47.984;7.668;2023-12-22T05:20:48;14.53;;;1.97;;
2388;SDS011;1205;47.984;7.668;2023-12-22T05:23:13;5.47;;;1.63;;
2388;SDS011;1205;47.984;7.668;2023-12-22T05:25:40;5.93;;;2.20;;
2388;SDS011;1205;47.984;7.668;2023-12-22T05:28:06;11.70;;;1.97;;
2388;SDS011;1205;47.984;7.668;2023-12-22T05:30:31;4.87;;;1.60;;
2388;SDS011;1205;47.984;7.668;2023-12-22T05:32:57;4.30;;;1.63;;
2388;SDS011;1205;47.984;7.668;2023-12-22T05:35:22;11.00;;;1.80;;
2388;SDS011;1205;47.984;7.668;2023-12-22T05:37:48;10.53;;;1.70;;
2388;SDS011;1205;47.984;7.668;2023-12-22T05:40:13;7.67;;;1.73;;
2388;SDS011;1205;47.984;7.668;2023-12-22T05:42:39;6.50;;;2.07;;
2388;SDS011;1205;47.984;7.668;2023-12-22T05:45:05;6.80;;;1.60;;
2388;SDS011;1205;47.984;7.668;2023-12-22T05:47:32;9.67;;;1.90;;
2388;SDS011;1205;47.984;7.668;2023-12-22T05:49:57;16.10;;;2.57;;
2388;SDS011;1205;47.984;7.668;2023-12-22T05:52:23;11.80;;;2.43;;
2388;SDS011;1205;47.984;7.668;2023-12-22T05:54:49;10.60;;;2.17;;
2388;SDS011;1205;47.984;7.668;2023-12-22T05:57:14;9.33;;;2.27;;
2388;SDS011;1205;47.984;7.668;2023-12-22T05:59:40;11.27;;;2.87;;
2388;SDS011;1205;47.984;7.668;2023-12-22T06:02:05;11.83;;;2.33;;
2388;SDS011;1205;47.984;7.668;2023-12-22T06:04:31;8.17;;;2.33;;
2388;SDS011;1205;47.984;7.668;2023-12-22T06:06:56;10.23;;;2.20;;
2388;SDS011;1205;47.984;7.668;2023-12-22T06:09:22;16.00;;;2.30;;
2388;SDS011;1205;47.984;7.668;2023-12-22T06:11:48;15.47;;;2.40;;
2388;SDS011;1205;47.984;7.668;2023-12-22T06:14:14;12.77;;;2.30;;
2388;SDS011;1205;47.984;7.668;2023-12-22T06:16:39;13.13;;;2.10;;
2388;SDS011;1205;47.984;7.668;2023-12-22T06:19:05;11.93;;;2.70;;
2388;SDS011;1205;47.984;7.668;2023-12-22T06:21:31;9.93;;;2.30;;
2388;SDS011;1205;47.984;7.668;2023-12-22T06:23:57;7.00;;;1.40;;
2388;SDS011;1205;47.984;7.668;2023-12-22T06:26:22;8.37;;;2.17;;
2388;SDS011;1205;47.984;7.668;2023-12-22T06:28:48;6.53;;;1.93;;
2388;SDS011;1205;47.984;7.668;2023-12-22T06:31:18;10.53;;;2.60;;
2388;SDS011;1205;47.984;7.668;2023-12-22T06:33:45;10.13;;;1.67;;
2388;SDS011;1205;47.984;7.668;2023-12-22T06:36:24;16.30;;;2.30;;
2388;SDS011;1205;47.984;7.668;2023-12-22T06:38:50;8.07;;;1.40;;
2388;SDS011;1205;47.984;7.668;2023-12-22T06:41:20;2.60;;;1.30;;
2388;SDS011;1205;47.984;7.668;2023-12-22T06:43:46;4.40;;;1.43;;
2388;SDS011;1205;47.984;7.668;2023-12-22T06:46:15;12.93;;;1.77;;
2388;SDS011;1205;47.984;7.668;2023-12-22T06:48:42;4.70;;;1.10;;
2388;SDS011;1205;47.984;7.668;2023-12-22T06:51:07;3.50;;;1.20;;
2388;SDS011;1205;47.984;7.668;2023-12-22T06:53:49;6.33;;;1.90;;
2388;SDS011;1205;47.984;7.668;2023-12-22T06:56:19;4.33;;;1.67;;
2388;SDS011;1205;47.984;7.668;2023-12-22T06:58:46;8.70;;;2.23;;
2388;SDS011;1205;47.984;7.668;2023-12-22T07:01:32;8.73;;;1.67;;
2388;SDS011;1205;47.984;7.668;2023-12-22T07:03:59;5.77;;;1.50;;
2388;SDS011;1205;47.984;7.668;2023-12-22T07:06:25;5.73;;;1.40;;
2388;SDS011;1205;47.984;7.668;2023-12-22T07:11:39;6.47;;;1.80;;
2388;SDS011;1205;47.984;7.668;2023-12-22T07:14:15;8.50;;;1.73;;
2388;SDS011;1205;47.984;7.668;2023-12-22T07:16:41;6.03;;;1.73;;
2388;SDS011;1205;47.984;7.668;2023-12-22T07:19:09;13.37;;;2.23;;
2388;SDS011;1205;47.984;7.668;2023-12-22T07:21:41;10.10;;;1.57;;
2388;SDS011;1205;47.984;7.668;2023-12-22T07:24:07;6.90;;;1.50;;
2388;SDS011;1205;47.984;7.668;2023-12-22T07:26:32;10.00;;;2.10;;
2388;SDS011;1205;47.984;7.668;2023-12-22T07:28:58;8.93;;;1.77;;
2388;SDS011;1205;47.984;7.668;2023-12-22T07:31:24;9.23;;;1.83;;
2388;SDS011;1205;47.984;7.668;2023-12-22T07:33:50;7.33;;;2.07;;
2388;SDS011;1205;47.984;7.668;2023-12-22T07:36:16;7.47;;;2.10;;
2388;SDS011;1205;47.984;7.668;2023-12-22T07:38:43;8.07;;;1.70;;
2388;SDS011;1205;47.984;7.668;2023-12-22T07:41:09;10.07;;;2.43;;
2388;SDS011;1205;47.984;7.668;2023-12-22T07:43:35;14.77;;;2.30;;
2388;SDS011;1205;47.984;7.668;2023-12-22T07:46:01;9.53;;;1.80;;
2388;SDS011;1205;47.984;7.668;2023-12-22T07:48:27;11.50;;;2.37;;
2388;SDS011;1205;47.984;7.668;2023-12-22T07:50:52;11.80;;;2.53;;
2388;SDS011;1205;47.984;7.668;2023-12-22T07:53:18;9.40;;;2.80;;
2388;SDS011;1205;47.984;7.668;2023-12-22T07:55:44;9.03;;;2.37;;
2388;SDS011;1205;47.984;7.668;2023-12-22T07:58:11;9.23;;;2.50;;
2388;SDS011;1205;47.984;7.668;2023-12-22T08:00:37;12.17;;;2.47;;
2388;SDS011;1205;47.984;7.668;2023-12-22T08:03:03;16.53;;;3.70;;
2388;SDS011;1205;47.984;7.668;2023-12-22T08:05:29;7.27;;;1.93;;
2388;SDS011;1205;47.984;7.668;2023-12-22T08:07:58;11.50;;;2.30;;
2388;SDS011;1205;47.984;7.668;2023-12-22T08:10:25;5.90;;;1.70;;
2388;SDS011;1205;47.984;7.668;2023-12-22T08:12:52;6.63;;;2.03;;
2388;SDS011;1205;47.984;7.668;2023-12-22T08:15:18;11.37;;;2.30;;
2388;SDS011;1205;47.984;7.668;2023-12-22T08:17:47;7.13;;;1.63;;
2388;SDS011;1205;47.984;7.668;2023-12-22T08:20:17;8.63;;;2.53;;
2388;SDS011;1205;47.984;7.668;2023-12-22T08:22:44;21.20;;;6.67;;
2388;SDS011;1205;47.984;7.668;2023-12-22T08:25:13;26.50;;;8.60;;
2388;SDS011;1205;47.984;7.668;2023-12-22T08:27:39;9.60;;;2.37;;
2388;SDS011;1205;47.984;7.668;2023-12-22T08:30:05;11.93;;;2.10;;
2388;SDS011;1205;47.984;7.668;2023-12-22T08:32:31;7.23;;;2.30;;
2388;SDS011;1205;47.984;7.668;2023-12-22T08:34:56;8.97;;;2.20;;
2388;SDS011;1205;47.984;7.668;2023-12-22T08:37:22;7.70;;;2.07;;
2388;SDS011;1205;47.984;7.668;2023-12-22T08:39:48;7.37;;;2.23;;
2388;SDS011;1205;47.984;7.668;2023-12-22T08:42:15;14.50;;;3.60;;
2388;SDS011;1205;47.984;7.668;2023-12-22T08:44:41;7.50;;;1.93;;
2388;SDS011;1205;47.984;7.668;2023-12-22T08:47:07;15.23;;;2.37;;
2388;SDS011;1205;47.984;7.668;2023-12-22T08:49:32;14.20;;;2.47;;
2388;SDS011;1205;47.984;7.668;2023-12-22T08:51:58;11.53;;;2.70;;
2388;SDS011;1205;47.984;7.668;2023-12-22T08:54:24;12.50;;;2.80;;
2388;SDS011;1205;47.984;7.668;2023-12-22T08:56:49;9.23;;;2.30;;
2388;SDS011;1205;47.984;7.668;2023-12-22T08:59:15;13.77;;;2.33;;
2388;SDS011;1205;47.984;7.668;2023-12-22T09:01:40;12.80;;;2.43;;
2388;SDS011;1205;47.984;7.668;2023-12-22T09:04:07;7.33;;;2.20;;
2388;SDS011;1205;47.984;7.668;2023-12-22T09:06:34;7.60;;;2.43;;
2388;SDS011;1205;47.984;7.668;2023-12-22T09:08:59;10.27;;;2.13;;
2388;SDS011;1205;47.984;7.668;2023-12-22T09:11:25;10.30;;;2.40;;
2388;SDS011;1205;47.984;7.668;2023-12-22T09:13:51;12.60;;;2.67;;
2388;SDS011;1205;47.984;7.668;2023-12-22T09:16:22;14.70;;;2.90;;
2388;SDS011;1205;47.984;7.668;2023-12-22T09:18:48;7.83;;;2.23;;
2388;SDS011;1205;47.984;7.668;2023-12-22T09:21:15;14.63;;;2.80;;
2388;SDS011;1205;47.984;7.668;2023-12-22T09:23:42;6.87;;;2.57;;
2388;SDS011;1205;47.984;7.668;2023-12-22T09:26:14;16.93;;;3.23;;
2388;SDS011;1205;47.984;7.668;2023-12-22T09:28:40;14.20;;;2.33;;
2388;SDS011;1205;47.984;7.668;2023-12-22T09:31:06;8.53;;;2.40;;
2388;SDS011;1205;47.984;7.668;2023-12-22T09:33:33;12.90;;;2.40;;
2388;SDS011;1205;47.984;7.668;2023-12-22T09:35:58;9.17;;;2.27;;
2388;SDS011;1205;47.984;7.668;2023-12-22T09:38:24;7.70;;;2.77;;
2388;SDS011;1205;47.984;7.668;2023-12-22T09:40:50;11.03;;;2.50;;
2388;SDS011;1205;47.984;7.668;2023-12-22T09:43:15;12.87;;;3.07;;
2388;SDS011;1205;47.984;7.668;2023-12-22T09:45:44;11.30;;;2.30;;
2388;SDS011;1205;47.984;7.668;2023-12-22T09:48:12;6.60;;;2.50;;
2388;SDS011;1205;47.984;7.668;2023-12-22T09:50:42;11.70;;;2.50;;
2388;SDS011;1205;47.984;7.668;2023-12-22T09:53:14;16.10;;;2.90;;
2388;SDS011;1205;47.984;7.668;2023-12-22T09:55:44;10.03;;;1.97;;
2388;SDS011;1205;47.984;7.668;2023-12-22T09:58:14;15.13;;;2.80;;
2388;SDS011;1205;47.984;7.668;2023-12-22T10:00:41;15.90;;;2.80;;
2388;SDS011;1205;47.984;7.668;2023-12-22T10:03:07;10.37;;;2.70;;
2388;SDS011;1205;47.984;7.668;2023-12-22T10:05:35;12.47;;;3.07;;
2388;SDS011;1205;47.984;7.668;2023-12-22T10:08:02;20.13;;;2.37;;
2388;SDS011;1205;47.984;7.668;2023-12-22T10:10:30;10.63;;;2.20;;
2388;SDS011;1205;47.984;7.668;2023-12-22T10:12:58;5.37;;;1.60;;
2388;SDS011;1205;47.984;7.668;2023-12-22T10:15:24;10.63;;;2.57;;
2388;SDS011;1205;47.984;7.668;2023-12-22T10:17:54;9.97;;;3.97;;
2388;SDS011;1205;47.984;7.668;2023-12-22T10:20:20;11.00;;;2.30;;
2388;SDS011;1205;47.984;7.668;2023-12-22T10:22:47;5.27;;;2.17;;
2388;SDS011;1205;47.984;7.668;2023-12-22T10:25:19;13.70;;;1.50;;
2388;SDS011;1205;47.984;7.668;2023-12-22T10:27:46;10.33;;;2.40;;
2388;SDS011;1205;47.984;7.668;2023-12-22T10:30:11;15.83;;;1.90;;
2388;SDS011;1205;47.984;7.668;2023-12-22T10:32:40;4.77;;;1.40;;
2388;SDS011;1205;47.984;7.668;2023-12-22T10:35:09;8.53;;;1.33;;
2388;SDS011;1205;47.984;7.668;2023-12-22T10:37:35;3.37;;;1.80;;
2388;SDS011;1205;47.984;7.668;2023-12-22T10:40:03;4.53;;;1.50;;
2388;SDS011;1205;47.984;7.668;2023-12-22T10:42:31;6.40;;;1.70;;
2388;SDS011;1205;47.984;7.668;2023-12-22T10:44:57;6.43;;;1.60;;
2388;SDS011;1205;47.984;7.668;2023-12-22T10:47:22;3.80;;;1.50;;
2388;SDS011;1205;47.984;7.668;2023-12-22T10:49:48;7.43;;;1.87;;
2388;SDS011;1205;47.984;7.668;2023-12-22T10:52:17;10.63;;;2.30;;
2388;SDS011;1205;47.984;7.668;2023-12-22T10:54:44;8.57;;;3.83;;
2388;SDS011;1205;47.984;7.668;2023-12-22T10:57:10;8.50;;;4.87;;
2388;SDS011;1205;47.984;7.668;2023-12-22T10:59:38;6.70;;;4.60;;
2388;SDS011;1205;47.984;7.668;2023-12-22T11:02:08;3.90;;;3.10;;
2388;SDS011;1205;47.984;7.668;2023-12-22T11:04:40;8.90;;;3.80;;
2388;SDS011;1205;47.984;7.668;2023-12-22T11:07:09;6.23;;;1.93;;
2388;SDS011;1205;47.984;7.668;2023-12-22T11:09:36;4.37;;;2.43;;
2388;SDS011;1205;47.984;7.668;2023-12-22T11:12:03;8.50;;;5.73;;
2388;SDS011;1205;47.984;7.668;2023-12-22T11:14:31;5.70;;;3.20;;
2388;SDS011;1205;47.984;7.668;2023-12-22T11:16:57;5.23;;;3.37;;
2388;SDS011;1205;47.984;7.668;2023-12-22T11:19:26;3.50;;;2.10;;
2388;SDS011;1205;47.984;7.668;2023-12-22T11:21:53;9.20;;;3.50;;
2388;SDS011;1205;47.984;7.668;2023-12-22T11:24:19;7.43;;;3.07;;
2388;SDS011;1205;47.984;7.668;2023-12-22T11:26:46;8.50;;;3.73;;
2388;SDS011;1205;47.984;7.668;2023-12-22T11:29:14;7.17;;;3.20;;
2388;SDS011;1205;47.984;7.668;2023-12-22T11:31:43;7.10;;;4.23;;
2388;SDS011;1205;47.984;7.668;2023-12-22T11:34:11;5.13;;;3.10;;
2388;SDS011;1205;47.984;7.668;2023-12-22T11:36:37;3.13;;;2.93;;
2388;SDS011;1205;47.984;7.668;2023-12-22T11:39:03;7.37;;;5.80;;
2388;SDS011;1205;47.984;7.668;2023-12-22T11:41:30;1.73;;;1.60;;
2388;SDS011;1205;47.984;7.668;2023-12-22T11:43:58;2.83;;;1.87;;
2388;SDS011;1205;47.984;7.668;2023-12-22T11:46:25;2.70;;;2.30;;
2388;SDS011;1205;47.984;7.668;2023-12-22T11:48:51;3.00;;;1.23;;
2388;SDS011;1205;47.984;7.668;2023-12-22T11:51:17;2.30;;;1.60;;
2388;SDS011;1205;47.984;7.668;2023-12-22T11:53:44;3.50;;;2.13;;
2388;SDS011;1205;47.984;7.668;2023-12-22T11:56:10;1.53;;;1.30;;
2388;SDS011;1205;47.984;7.668;2023-12-22T12:03:40;12.10;;;8.00;;
2388;SDS011;1205;47.984;7.668;2023-12-22T12:08:36;3.47;;;2.30;;
2388;SDS011;1205;47.984;7.668;2023-12-22T12:11:02;7.30;;;4.87;;
2388;SDS011;1205;47.984;7.668;2023-12-22T12:13:28;4.53;;;2.93;;
2388;SDS011;1205;47.984;7.668;2023-12-22T12:15:56;2.53;;;2.33;;
2388;SDS011;1205;47.984;7.668;2023-12-22T12:18:27;12.80;;;6.50;;
2388;SDS011;1205;47.984;7.668;2023-12-22T12:20:53;23.23;;;11.77;;
2388;SDS011;1205;47.984;7.668;2023-12-22T12:23:20;28.40;;;14.10;;
2388;SDS011;1205;47.984;7.668;2023-12-22T12:25:48;7.00;;;5.10;;
2388;SDS011;1205;47.984;7.668;2023-12-22T12:28:14;4.03;;;2.70;;
2388;SDS011;1205;47.984;7.668;2023-12-22T12:30:43;3.13;;;2.13;;
2388;SDS011;1205;47.984;7.668;2023-12-22T12:33:10;6.73;;;5.20;;
2388;SDS011;1205;47.984;7.668;2023-12-22T12:35:37;2.97;;;2.00;;
2388;SDS011;1205;47.984;7.668;2023-12-22T12:38:04;5.50;;;5.00;;
2388;SDS011;1205;47.984;7.668;2023-12-22T12:40:30;10.03;;;6.87;;
2388;SDS011;1205;47.984;7.668;2023-12-22T12:42:59;5.77;;;3.20;;
2388;SDS011;1205;47.984;7.668;2023-12-22T12:45:25;2.47;;;2.27;;
2388;SDS011;1205;47.984;7.668;2023-12-22T12:47:57;2.23;;;2.13;;
2388;SDS011;1205;47.984;7.668;2023-12-22T12:50:27;10.37;;;5.80;;
2388;SDS011;1205;47.984;7.668;2023-12-22T12:52:54;2.93;;;2.83;;
2388;SDS011;1205;47.984;7.668;2023-12-22T12:55:21;2.57;;;2.40;;
2388;SDS011;1205;47.984;7.668;2023-12-22T12:57:48;1.27;;;1.23;;
2388;SDS011;1205;47.984;7.668;2023-12-22T13:00:24;5.60;;;4.63;;
2388;SDS011;1205;47.984;7.668;2023-12-22T13:02:50;3.73;;;3.43;;
2388;SDS011;1205;47.984;7.668;2023-12-22T13:05:20;2.23;;;1.80;;
2388;SDS011;1205;47.984;7.668;2023-12-22T13:07:48;1.53;;;1.43;;
2388;SDS011;1205;47.984;7.668;2023-12-22T13:12:52;1.80;;;1.77;;
2388;SDS011;1205;47.984;7.668;2023-12-22T13:15:19;2.30;;;2.20;;
2388;SDS011;1205;47.984;7.668;2023-12-22T13:17:46;3.80;;;3.50;;
2388;SDS011;1205;47.984;7.668;2023-12-22T13:20:12;5.17;;;4.67;;
2388;SDS011;1205;47.984;7.668;2023-12-22T13:22:38;2.47;;;2.37;;
2388;SDS011;1205;47.984;7.668;2023-12-22T13:25:04;2.30;;;1.50;;
2388;SDS011;1205;47.984;7.668;2023-12-22T13:27:30;1.47;;;1.03;;
2388;SDS011;1205;47.984;7.668;2023-12-22T13:29:56;2.00;;;1.83;;
2388;SDS011;1205;47.984;7.668;2023-12-22T13:32:22;2.60;;;2.40;;
2388;SDS011;1205;47.984;7.668;2023-12-22T13:34:52;3.33;;;2.67;;
2388;SDS011;1205;47.984;7.668;2023-12-22T13:37:19;4.80;;;1.93;;
2388;SDS011;1205;47.984;7.668;2023-12-22T13:39:45;3.40;;;3.10;;
2388;SDS011;1205;47.984;7.668;2023-12-22T13:42:15;6.20;;;3.43;;
2388;SDS011;1205;47.984;7.668;2023-12-22T13:44:42;5.13;;;4.57;;
2388;SDS011;1205;47.984;7.668;2023-12-22T13:47:09;14.00;;;9.00;;
2388;SDS011;1205;47.984;7.668;2023-12-22T13:49:34;4.00;;;2.77;;
2388;SDS011;1205;47.984;7.668;2023-12-22T13:52:00;1.73;;;1.63;;
2388;SDS011;1205;47.984;7.668;2023-12-22T13:54:31;1.73;;;1.63;;
2388;SDS011;1205;47.984;7.668;2023-12-22T13:56:58;0.97;;;0.97;;
2388;SDS011;1205;47.984;7.668;2023-12-22T13:59:33;1.73;;;1.40;;
2388;SDS011;1205;47.984;7.668;2023-12-22T14:01:59;1.00;;;1.00;;
2388;SDS011;1205;47.984;7.668;2023-12-22T14:04:25;1.30;;;0.70;;
2388;SDS011;1205;47.984;7.668;2023-12-22T14:06:51;0.70;;;0.70;;
2388;SDS011;1205;47.984;7.668;2023-12-22T14:09:16;0.57;;;0.57;;
2388;SDS011;1205;47.984;7.668;2023-12-22T14:11:46;0.63;;;0.63;;
2388;SDS011;1205;47.984;7.668;2023-12-22T14:14:12;2.10;;;0.90;;
2388;SDS011;1205;47.984;7.668;2023-12-22T14:16:40;0.80;;;0.80;;
2388;SDS011;1205;47.984;7.668;2023-12-22T14:19:05;1.80;;;0.80;;
2388;SDS011;1205;47.984;7.668;2023-12-22T14:21:31;0.73;;;0.73;;
2388;SDS011;1205;47.984;7.668;2023-12-22T14:23:56;0.50;;;0.43;;
2388;SDS011;1205;47.984;7.668;2023-12-22T14:26:22;0.60;;;0.60;;
2388;SDS011;1205;47.984;7.668;2023-12-22T14:28:48;0.53;;;0.53;;
2388;SDS011;1205;47.984;7.668;2023-12-22T14:31:15;0.53;;;0.53;;
2388;SDS011;1205;47.984;7.668;2023-12-22T14:33:42;0.60;;;0.60;;
2388;SDS011;1205;47.984;7.668;2023-12-22T14:36:07;0.57;;;0.57;;
2388;SDS011;1205;47.984;7.668;2023-12-22T14:38:33;1.40;;;0.60;;
2388;SDS011;1205;47.984;7.668;2023-12-22T14:40:58;1.67;;;0.90;;
2388;SDS011;1205;47.984;7.668;2023-12-22T14:43:24;0.43;;;0.43;;
2388;SDS011;1205;47.984;7.668;2023-12-22T14:45:50;0.70;;;0.70;;
2388;SDS011;1205;47.984;7.668;2023-12-22T14:48:16;0.80;;;0.80;;
2388;SDS011;1205;47.984;7.668;2023-12-22T14:50:41;0.90;;;0.90;;
2388;SDS011;1205;47.984;7.668;2023-12-22T14:53:07;1.70;;;1.53;;
2388;SDS011;1205;47.984;7.668;2023-12-22T14:55:32;1.20;;;1.10;;
2388;SDS011;1205;47.984;7.668;2023-12-22T14:57:58;1.73;;;0.70;;
2388;SDS011;1205;47.984;7.668;2023-12-22T15:00:24;0.67;;;0.67;;
2388;SDS011;1205;47.984;7.668;2023-12-22T15:02:50;0.77;;;0.53;;
2388;SDS011;1205;47.984;7.668;2023-12-22T15:05:15;0.60;;;0.60;;
2388;SDS011;1205;47.984;7.668;2023-12-22T15:07:41;0.70;;;0.70;;
2388;SDS011;1205;47.984;7.668;2023-12-22T15:10:06;1.27;;;0.63;;
2388;SDS011;1205;47.984;7.668;2023-12-22T15:12:32;1.37;;;0.97;;
2388;SDS011;1205;47.984;7.668;2023-12-22T15:15:01;0.50;;;0.50;;
2388;SDS011;1205;47.984;7.668;2023-12-22T15:17:28;0.60;;;0.60;;
2388;SDS011;1205;47.984;7.668;2023-12-22T15:19:53;0.77;;;0.77;;
2388;SDS011;1205;47.984;7.668;2023-12-22T15:22:19;0.70;;;0.70;;
2388;SDS011;1205;47.984;7.668;2023-12-22T15:24:47;0.80;;;0.80;;
2388;SDS011;1205;47.984;7.668;2023-12-22T15:27:12;1.20;;;1.20;;